createdAt,value
2023-02-17T00:00:23.129Z,5.78
2023-02-17T00:02:57.792Z,4.60
2023-02-17T00:05:30.553Z,4.28
2023-02-17T00:08:03.303Z,5.05
2023-02-17T00:10:36.074Z,5.35
2023-02-17T00:13:09.231Z,4.93
2023-02-17T00:15:43.435Z,4.70
2023-02-17T00:18:16.262Z,4.50
2023-02-17T00:20:49.194Z,4.93
2023-02-17T00:23:22.109Z,4.90
2023-02-17T00:25:54.894Z,5.40
2023-02-17T00:28:27.938Z,5.30
2023-02-17T00:31:07.196Z,5.07
2023-02-17T00:33:40.144Z,4.55
2023-02-17T00:36:15.303Z,4.75
2023-02-17T00:38:49.086Z,4.90
2023-02-17T00:41:22.800Z,4.97
2023-02-17T00:43:56.073Z,4.50
2023-02-17T00:46:30.638Z,5.95
2023-02-17T00:49:03.498Z,5.32
2023-02-17T00:51:36.370Z,5.50
2023-02-17T00:54:10.730Z,6.22
2023-02-17T00:56:44.094Z,5.30
2023-02-17T00:59:17.048Z,5.28
2023-02-17T01:01:51.258Z,4.80
2023-02-17T01:04:24.296Z,5.22
2023-02-17T01:06:57.179Z,5.22
2023-02-17T01:09:30.037Z,5.80
2023-02-17T01:12:02.844Z,4.90
2023-02-17T01:14:37.672Z,5.75
2023-02-17T01:17:11.868Z,5.40
2023-02-17T01:19:45.013Z,5.60
2023-02-17T01:22:17.967Z,5.60
2023-02-17T01:24:50.867Z,6.32
2023-02-17T01:27:23.784Z,5.78
2023-02-17T01:29:56.794Z,6.75
2023-02-17T01:32:31.040Z,6.95
2023-02-17T01:35:03.901Z,6.13
2023-02-17T01:37:41.021Z,7.53
2023-02-17T01:40:15.067Z,5.65
2023-02-17T01:42:48.014Z,5.85
2023-02-17T01:45:34.585Z,6.30
2023-02-17T01:48:13.272Z,6.05
2023-02-17T01:50:51.192Z,5.95
2023-02-17T01:53:28.671Z,5.82
2023-02-17T01:56:02.746Z,5.68
2023-02-17T01:58:36.281Z,5.60
2023-02-17T02:01:09.992Z,5.10
2023-02-17T02:03:45.370Z,4.97
2023-02-17T02:06:23.896Z,6.07
2023-02-17T02:09:03.133Z,5.60
2023-02-17T02:11:37.364Z,4.85
2023-02-17T02:14:14.087Z,5.38
2023-02-17T02:16:54.067Z,5.28
2023-02-17T02:19:57.886Z,5.30
2023-02-17T02:22:58.725Z,4.65
2023-02-17T02:26:03.920Z,5.70
2023-02-17T02:28:52.824Z,5.05
2023-02-17T02:34:10.032Z,5.35
2023-02-17T02:36:47.398Z,5.88
2023-02-17T02:39:22.221Z,6.60
2023-02-17T02:42:00.094Z,5.18
2023-02-17T02:44:33.052Z,6.18
2023-02-17T02:47:08.321Z,5.55
2023-02-17T02:49:42.683Z,6.07
2023-02-17T02:52:24.597Z,6.03
2023-02-17T02:55:05.855Z,5.90
2023-02-17T02:57:45.997Z,5.30
2023-02-17T03:00:25.118Z,6.43
2023-02-17T03:03:03.158Z,6.03
2023-02-17T03:05:45.729Z,6.25
2023-02-17T03:08:23.013Z,5.65
2023-02-17T03:10:57.581Z,6.35
2023-02-17T03:13:33.547Z,6.78
2023-02-17T03:16:07.579Z,5.72
2023-02-17T03:18:40.701Z,6.05
2023-02-17T03:21:18.237Z,5.63
2023-02-17T03:23:51.316Z,6.10
2023-02-17T03:26:24.212Z,5.82
2023-02-17T03:28:57.217Z,6.00
2023-02-17T03:31:31.038Z,5.95
2023-02-17T03:34:04.441Z,5.78
2023-02-17T03:36:38.801Z,6.15
2023-02-17T03:39:11.720Z,6.28
2023-02-17T03:41:44.595Z,5.60
2023-02-17T03:44:17.494Z,5.18
2023-02-17T03:46:50.279Z,6.35
2023-02-17T03:49:23.041Z,5.28
2023-02-17T03:51:58.175Z,5.22
2023-02-17T03:54:30.994Z,5.45
2023-02-17T03:57:03.877Z,6.05
2023-02-17T03:59:36.858Z,6.63
2023-02-17T04:02:09.851Z,5.35
2023-02-17T04:04:43.037Z,5.30
2023-02-17T04:07:17.207Z,6.03
2023-02-17T04:09:50.236Z,5.50
2023-02-17T04:12:23.220Z,5.28
2023-02-17T04:14:56.220Z,5.82
2023-02-17T04:17:29.028Z,5.43
2023-02-17T04:20:01.948Z,5.78
2023-02-17T04:22:36.090Z,5.38
2023-02-17T04:25:09.290Z,6.75
2023-02-17T04:27:42.145Z,5.63
2023-02-17T04:30:16.118Z,5.50
2023-02-17T04:32:49.250Z,5.63
2023-02-17T04:35:21.992Z,6.05
2023-02-17T04:37:56.602Z,5.47
2023-02-17T04:40:29.651Z,5.70
2023-02-17T04:43:02.990Z,5.47
2023-02-17T04:45:36.055Z,5.53
2023-02-17T04:48:08.880Z,6.50
2023-02-17T04:50:41.699Z,5.70
2023-02-17T04:53:15.893Z,5.43
2023-02-17T04:55:50.495Z,5.20
2023-02-17T04:58:23.331Z,5.75
2023-02-17T05:00:59.544Z,5.97
2023-02-17T05:03:32.462Z,5.38
2023-02-17T05:06:06.242Z,5.38
2023-02-17T05:08:41.006Z,5.32
2023-02-17T05:11:13.810Z,6.05
2023-02-17T05:13:46.507Z,5.20
2023-02-17T05:16:20.002Z,6.40
2023-02-17T05:18:53.018Z,5.93
2023-02-17T05:21:25.777Z,5.20
2023-02-17T05:24:00.087Z,5.85
2023-02-17T05:26:33.060Z,5.35
2023-02-17T05:29:06.348Z,5.32
2023-02-17T05:31:39.301Z,5.55
2023-02-17T05:34:13.511Z,5.45
2023-02-17T05:36:46.335Z,5.32
2023-02-17T05:39:20.487Z,5.47
2023-02-17T05:41:55.323Z,5.78
2023-02-17T05:44:29.298Z,5.20
2023-02-17T05:47:02.155Z,6.35
2023-02-17T05:49:35.189Z,5.72
2023-02-17T05:52:08.199Z,4.72
2023-02-17T05:54:42.478Z,5.15
2023-02-17T05:57:15.531Z,4.93
2023-02-17T05:59:48.439Z,4.68
2023-02-17T06:02:21.332Z,4.95
2023-02-17T06:04:54.161Z,4.80
2023-02-17T06:07:27.148Z,4.05
2023-02-17T06:10:01.555Z,5.70
2023-02-17T06:12:34.500Z,5.90
2023-02-17T06:15:08.268Z,4.93
2023-02-17T06:17:41.484Z,4.97
2023-02-17T06:20:14.830Z,5.10
2023-02-17T06:22:47.819Z,5.85
2023-02-17T06:25:22.164Z,4.90
2023-02-17T06:27:55.151Z,5.22
2023-02-17T06:30:28.276Z,4.95
2023-02-17T06:33:01.205Z,4.97
2023-02-17T06:35:34.226Z,5.18
2023-02-17T06:38:07.260Z,4.40
2023-02-17T06:40:41.424Z,4.70
2023-02-17T06:43:14.528Z,5.13
2023-02-17T06:45:47.312Z,4.60
2023-02-17T06:48:20.290Z,4.80
2023-02-17T06:50:53.472Z,5.03
2023-02-17T06:53:26.705Z,4.97
2023-02-17T06:56:00.822Z,4.30
2023-02-17T06:58:35.404Z,4.88
2023-02-17T07:01:09.586Z,4.60
2023-02-17T07:03:42.403Z,4.47
2023-02-17T07:06:15.458Z,5.30
2023-02-17T07:08:48.635Z,4.90
2023-02-17T07:11:22.917Z,4.50
2023-02-17T07:13:55.788Z,3.83
2023-02-17T07:16:28.533Z,3.92
2023-02-17T07:19:01.357Z,4.47
2023-02-17T07:21:34.126Z,3.90
2023-02-17T07:24:07.513Z,4.88
2023-02-17T07:26:41.796Z,4.38
2023-02-17T07:29:14.570Z,4.03
2023-02-17T07:31:47.520Z,4.45
2023-02-17T07:34:20.356Z,4.97
2023-02-17T07:36:53.114Z,5.13
2023-02-17T07:39:25.915Z,4.65
2023-02-17T07:42:01.144Z,5.22
2023-02-17T07:44:34.623Z,4.80
2023-02-17T07:47:07.474Z,4.50
2023-02-17T07:49:40.375Z,4.50
2023-02-17T07:52:13.242Z,4.53
2023-02-17T07:54:46.033Z,4.05
2023-02-17T07:57:20.134Z,4.80
2023-02-17T07:59:53.088Z,4.72
2023-02-17T08:02:26.181Z,4.82
2023-02-17T08:04:59.093Z,4.57
2023-02-17T08:07:33.004Z,4.07
2023-02-17T08:10:24.286Z,5.00
2023-02-17T08:13:15.835Z,4.75
2023-02-17T08:15:48.603Z,5.75
2023-02-17T08:18:21.439Z,5.50
2023-02-17T08:20:54.241Z,5.13
2023-02-17T08:23:29.824Z,5.65
2023-02-17T08:26:02.636Z,5.60
2023-02-17T08:28:36.916Z,5.53
2023-02-17T08:31:17.026Z,5.40
2023-02-17T08:33:49.978Z,5.28
2023-02-17T08:36:25.253Z,5.43
2023-02-17T08:38:58.364Z,5.07
2023-02-17T08:41:33.521Z,5.80
2023-02-17T08:44:11.612Z,5.50
2023-02-17T08:46:48.356Z,5.00
2023-02-17T08:49:23.937Z,5.75
2023-02-17T08:51:56.749Z,7.35
2023-02-17T08:54:29.768Z,5.35
2023-02-17T08:57:02.530Z,5.40
2023-02-17T08:59:36.659Z,5.05
2023-02-17T09:02:09.439Z,4.80
2023-02-17T09:04:43.238Z,4.57
2023-02-17T09:07:16.871Z,4.90
2023-02-17T09:09:49.684Z,4.80
2023-02-17T09:12:22.691Z,4.72
2023-02-17T09:14:56.991Z,4.97
2023-02-17T09:17:30.594Z,4.78
2023-02-17T09:20:11.208Z,5.55
2023-02-17T09:22:51.384Z,4.82
2023-02-17T09:25:24.519Z,4.60
2023-02-17T09:27:59.749Z,4.32
2023-02-17T09:30:34.300Z,4.93
2023-02-17T09:33:07.597Z,4.22
2023-02-17T09:35:40.663Z,3.85
2023-02-17T09:38:13.605Z,4.32
2023-02-17T09:40:48.797Z,2.72
2023-02-17T09:43:27.471Z,3.20
2023-02-17T09:46:07.404Z,3.30
2023-02-17T09:48:41.963Z,3.22
2023-02-17T09:51:20.633Z,3.15
2023-02-17T09:53:59.075Z,2.53
2023-02-17T09:56:36.241Z,2.60
2023-02-17T09:59:15.489Z,2.30
2023-02-17T10:01:53.356Z,2.63
2023-02-17T10:04:33.867Z,2.88
2023-02-17T10:07:10.956Z,2.40
2023-02-17T10:09:50.485Z,2.95
2023-02-17T10:12:27.074Z,2.45
2023-02-17T10:15:05.816Z,2.17
2023-02-17T10:17:45.191Z,2.50
2023-02-17T10:20:23.581Z,2.60
2023-02-17T10:23:03.036Z,2.30
2023-02-17T10:25:52.389Z,2.50
2023-02-17T10:28:39.885Z,2.20
2023-02-17T10:31:16.264Z,2.40
2023-02-17T10:33:56.641Z,2.25
2023-02-17T10:36:39.966Z,2.20
2023-02-17T10:39:31.422Z,2.20
2023-02-17T10:42:05.460Z,2.45
2023-02-17T10:44:39.210Z,2.53
2023-02-17T10:47:12.460Z,2.50
2023-02-17T10:49:50.761Z,2.90
2023-02-17T10:52:27.097Z,2.83
2023-02-17T10:55:11.367Z,2.88
2023-02-17T10:58:00.485Z,3.53
2023-02-17T11:00:33.748Z,3.10
2023-02-17T11:03:06.579Z,3.10
2023-02-17T11:05:40.746Z,3.05
2023-02-17T11:08:30.139Z,3.38
2023-02-17T11:11:06.006Z,3.75
2023-02-17T11:13:42.481Z,3.80
2023-02-17T11:16:26.068Z,4.10
2023-02-17T11:18:58.910Z,4.10
2023-02-17T11:21:34.547Z,5.10
2023-02-17T11:24:07.901Z,4.60
2023-02-17T11:26:40.831Z,4.00
2023-02-17T11:29:19.129Z,4.40
2023-02-17T11:31:56.585Z,3.95
2023-02-17T11:34:32.955Z,4.70
2023-02-17T11:37:24.577Z,3.80
2023-02-17T11:39:57.569Z,3.50
2023-02-17T11:42:33.234Z,3.30
2023-02-17T11:45:18.012Z,3.97
2023-02-17T11:48:06.976Z,3.30
2023-02-17T11:50:49.049Z,3.28
2023-02-17T11:53:35.080Z,3.28
2023-02-17T11:56:16.685Z,3.22
2023-02-17T11:59:09.422Z,3.25
2023-02-17T12:01:57.790Z,3.72
2023-02-17T12:04:32.384Z,3.40
2023-02-17T12:07:29.140Z,3.20
2023-02-17T12:10:11.800Z,3.67
2023-02-17T12:12:59.040Z,3.60
2023-02-17T12:15:45.251Z,3.80
2023-02-17T12:18:35.285Z,3.30
2023-02-17T12:21:12.815Z,3.53
2023-02-17T12:24:16.638Z,3.83
2023-02-17T12:26:55.106Z,4.00
2023-02-17T12:29:43.191Z,3.53
2023-02-17T12:32:29.482Z,4.00
2023-02-17T12:35:14.967Z,3.10
2023-02-17T12:37:54.318Z,3.25
2023-02-17T12:40:35.875Z,3.38
2023-02-17T12:43:22.674Z,3.65
2023-02-17T12:45:57.934Z,3.15
2023-02-17T12:48:36.940Z,3.45
2023-02-17T12:51:13.410Z,3.75
2023-02-17T12:53:50.164Z,3.30
2023-02-17T12:56:45.890Z,3.20
2023-02-17T12:59:23.179Z,3.42
2023-02-17T13:02:01.774Z,3.03
2023-02-17T13:04:35.860Z,2.75
2023-02-17T13:07:21.614Z,2.60
2023-02-17T13:09:56.830Z,1.98
2023-02-17T13:12:40.612Z,2.70
2023-02-17T13:15:39.503Z,2.40
2023-02-17T13:18:15.483Z,3.10
2023-02-17T13:20:59.452Z,2.30
2023-02-17T13:23:36.340Z,2.58
2023-02-17T13:26:37.121Z,2.40
2023-02-17T13:29:22.352Z,2.60
2023-02-17T13:31:58.455Z,2.58
2023-02-17T13:34:35.728Z,2.00
2023-02-17T13:37:26.707Z,2.47
2023-02-17T13:40:00.353Z,2.30
2023-02-17T13:42:39.945Z,2.30
2023-02-17T13:45:18.836Z,2.47
2023-02-17T13:47:55.735Z,2.38
2023-02-17T13:50:32.323Z,2.28
2023-02-17T13:53:32.110Z,2.03
2023-02-17T13:56:07.559Z,2.35
2023-02-17T13:58:42.758Z,2.20
2023-02-17T14:01:18.686Z,2.00
2023-02-17T14:03:55.100Z,2.03
2023-02-17T14:06:33.491Z,2.47
2023-02-17T14:09:13.496Z,1.98
2023-02-17T14:11:46.540Z,2.60
2023-02-17T14:14:20.130Z,2.40
2023-02-17T14:17:02.551Z,3.08
2023-02-17T14:19:45.426Z,3.10
2023-02-17T14:22:28.818Z,3.38
2023-02-17T14:25:05.228Z,3.17
2023-02-17T14:27:45.153Z,3.65
2023-02-17T14:30:30.245Z,3.38
2023-02-17T14:33:07.904Z,3.63
2023-02-17T14:35:51.149Z,3.42
2023-02-17T14:38:26.513Z,3.63
2023-02-17T14:41:01.247Z,3.83
2023-02-17T14:43:34.334Z,3.67
2023-02-17T14:46:07.672Z,3.40
2023-02-17T14:48:40.628Z,3.33
2023-02-17T14:51:16.323Z,3.90
2023-02-17T14:53:51.204Z,2.83
2023-02-17T14:56:27.855Z,2.78
2023-02-17T14:59:00.779Z,2.80
2023-02-17T15:01:33.661Z,2.60
2023-02-17T15:04:06.923Z,3.13
2023-02-17T15:06:43.454Z,3.50
2023-02-17T15:09:18.879Z,2.72
2023-02-17T15:11:51.725Z,2.80
2023-02-17T15:14:24.607Z,3.20
2023-02-17T15:16:57.643Z,3.10
2023-02-17T15:19:30.670Z,2.83
2023-02-17T15:22:06.106Z,3.15
2023-02-17T15:24:40.628Z,3.15
2023-02-17T15:27:15.404Z,2.95
2023-02-17T15:29:48.330Z,2.72
2023-02-17T15:32:23.955Z,2.95
2023-02-17T15:34:57.533Z,2.83
2023-02-17T15:37:31.734Z,2.90
2023-02-17T15:40:04.999Z,2.85
2023-02-17T15:42:37.854Z,2.80
2023-02-17T15:45:13.753Z,2.80
2023-02-17T15:47:47.312Z,2.70
2023-02-17T15:50:23.035Z,2.58
2023-02-17T15:52:58.385Z,2.20
2023-02-17T15:55:31.230Z,2.40
2023-02-17T15:58:05.914Z,2.63
2023-02-17T16:00:38.773Z,2.72
2023-02-17T16:03:13.527Z,2.40
2023-02-17T16:05:53.433Z,2.90
2023-02-17T16:08:27.567Z,2.42
2023-02-17T16:11:00.384Z,2.75
2023-02-17T16:13:33.503Z,3.28
2023-02-17T16:16:11.181Z,3.45
2023-02-17T16:18:43.948Z,2.75
2023-02-17T16:21:17.275Z,3.15
2023-02-17T16:23:52.637Z,3.88
2023-02-17T16:26:28.667Z,3.55
2023-02-17T16:29:02.138Z,3.85
2023-02-17T16:31:36.042Z,3.97
2023-02-17T16:34:08.990Z,4.32
2023-02-17T16:36:41.844Z,3.85
2023-02-17T16:39:18.283Z,4.07
2023-02-17T16:41:51.211Z,4.40
2023-02-17T16:44:24.593Z,4.05
2023-02-17T16:46:59.559Z,4.10
2023-02-17T16:49:35.949Z,4.00
2023-02-17T16:52:22.336Z,5.60
2023-02-17T16:54:56.697Z,5.10
2023-02-17T16:57:31.104Z,4.38
2023-02-17T17:00:05.380Z,4.25
2023-02-17T17:02:38.179Z,4.93
2023-02-17T17:05:12.640Z,4.70
2023-02-17T17:07:45.889Z,4.10
2023-02-17T17:10:22.839Z,4.05
2023-02-17T17:12:55.910Z,3.80
2023-02-17T17:15:29.532Z,3.65
2023-02-17T17:18:04.487Z,3.60
2023-02-17T17:20:41.693Z,5.15
2023-02-17T17:23:15.825Z,4.53
2023-02-17T17:25:49.903Z,4.40
2023-02-17T17:28:22.975Z,4.45
2023-02-17T17:30:56.123Z,3.53
2023-02-17T17:33:29.013Z,3.42
2023-02-17T17:36:02.057Z,4.13
2023-02-17T17:38:34.848Z,3.40
2023-02-17T17:41:12.173Z,3.38
2023-02-17T17:43:46.932Z,3.10
2023-02-17T17:46:22.237Z,3.47
2023-02-17T17:48:55.716Z,2.95
2023-02-17T17:51:31.026Z,2.70
2023-02-17T17:54:05.113Z,2.78
2023-02-17T17:56:43.135Z,2.58
2023-02-17T17:59:16.042Z,3.30
2023-02-17T18:01:48.969Z,2.40
2023-02-17T18:04:21.877Z,2.58
2023-02-17T18:06:58.038Z,2.80
2023-02-17T18:09:35.180Z,2.78
2023-02-17T18:12:12.115Z,2.80
2023-02-17T18:14:47.186Z,3.13
2023-02-17T18:17:20.622Z,3.58
2023-02-17T18:19:55.073Z,2.53
2023-02-17T18:22:28.111Z,4.10
2023-02-17T18:25:00.926Z,3.53
2023-02-17T18:27:40.489Z,3.08
2023-02-17T18:30:15.752Z,3.60
2023-02-17T18:32:49.426Z,3.20
2023-02-17T18:35:22.468Z,2.97
2023-02-17T18:37:55.377Z,3.40
2023-02-17T18:40:29.115Z,3.05
2023-02-17T18:43:03.573Z,3.13
2023-02-17T18:45:36.818Z,3.90
2023-02-17T18:48:09.645Z,4.07
2023-02-17T18:50:42.782Z,3.60
2023-02-17T18:53:16.630Z,3.20
2023-02-17T18:55:49.836Z,3.67
2023-02-17T18:58:24.083Z,3.65
2023-02-17T19:00:57.143Z,3.60
2023-02-17T19:03:30.728Z,3.05
2023-02-17T19:06:09.829Z,3.15
2023-02-17T19:08:42.674Z,3.85
2023-02-17T19:11:16.472Z,4.05
2023-02-17T19:13:52.341Z,3.55
2023-02-17T19:16:28.512Z,3.25
2023-02-17T19:19:02.156Z,3.88
2023-02-17T19:21:36.411Z,4.15
2023-02-17T19:24:10.695Z,3.33
2023-02-17T19:26:43.595Z,3.30
2023-02-17T19:29:17.810Z,3.25
2023-02-17T19:31:50.792Z,3.40
2023-02-17T19:34:23.806Z,3.15
2023-02-17T19:36:57.101Z,3.30
2023-02-17T19:39:30.564Z,3.40
2023-02-17T19:42:04.113Z,3.58
2023-02-17T19:44:38.318Z,3.20
2023-02-17T19:47:11.579Z,3.65
2023-02-17T19:49:44.490Z,6.40
2023-02-17T19:52:18.189Z,4.07
2023-02-17T19:54:51.076Z,3.35
2023-02-17T19:57:24.098Z,4.25
2023-02-17T19:59:58.598Z,2.80
2023-02-17T20:02:31.694Z,3.58
2023-02-17T20:05:05.162Z,3.47
2023-02-17T20:07:38.159Z,3.00
2023-02-17T20:10:12.948Z,3.45
2023-02-17T20:12:45.792Z,3.65
2023-02-17T20:15:20.181Z,2.92
2023-02-17T20:17:53.418Z,3.13
2023-02-17T20:20:26.313Z,3.00
2023-02-17T20:22:59.159Z,2.95
2023-02-17T20:25:32.196Z,3.85
2023-02-17T20:28:05.893Z,2.95
2023-02-17T20:30:42.643Z,3.10
2023-02-17T20:33:15.719Z,2.95
2023-02-17T20:35:48.868Z,2.95
2023-02-17T20:38:21.711Z,3.47
2023-02-17T20:40:54.689Z,3.38
2023-02-17T20:43:27.908Z,2.63
2023-02-17T20:46:02.813Z,3.00
2023-02-17T20:48:35.808Z,3.00
2023-02-17T20:51:08.806Z,3.08
2023-02-17T20:53:41.718Z,2.90
2023-02-17T20:56:16.654Z,2.53
2023-02-17T20:58:50.871Z,2.88
2023-02-17T21:01:25.187Z,3.13
2023-02-17T21:03:58.159Z,2.53
2023-02-17T21:06:34.007Z,2.67
2023-02-17T21:09:09.339Z,3.42
2023-02-17T21:11:42.981Z,2.83
2023-02-17T21:14:16.484Z,3.25
2023-02-17T21:16:50.750Z,3.17
2023-02-17T21:19:23.682Z,2.95
2023-02-17T21:21:56.763Z,3.00
2023-02-17T21:24:29.734Z,3.42
2023-02-17T21:27:02.670Z,3.03
2023-02-17T21:29:36.633Z,3.10
2023-02-17T21:32:10.986Z,3.22
2023-02-17T21:34:44.280Z,2.63
2023-02-17T21:37:17.370Z,3.85
2023-02-17T21:39:50.283Z,3.28
2023-02-17T21:42:37.008Z,2.95
2023-02-17T21:45:10.714Z,3.22
2023-02-17T21:47:45.779Z,3.25
2023-02-17T21:50:19.774Z,3.75
2023-02-17T21:52:53.161Z,3.50
2023-02-17T21:55:26.216Z,4.70
2023-02-17T21:57:59.107Z,3.70
2023-02-17T22:00:32.079Z,3.42
2023-02-17T22:03:06.590Z,4.20
2023-02-17T22:05:39.655Z,4.32
2023-02-17T22:08:13.366Z,3.80
2023-02-17T22:10:46.605Z,4.40
2023-02-17T22:13:19.514Z,4.22
2023-02-17T22:16:00.948Z,4.28
2023-02-17T22:18:37.620Z,4.25
2023-02-17T22:21:12.903Z,4.70
2023-02-17T22:23:46.541Z,4.32
2023-02-17T22:26:24.057Z,4.70
2023-02-17T22:28:57.834Z,4.72
2023-02-17T22:31:32.643Z,4.10
2023-02-17T22:34:09.993Z,4.80
2023-02-17T22:36:43.129Z,5.00
2023-02-17T22:39:16.969Z,5.38
2023-02-17T22:41:50.212Z,4.70
2023-02-17T22:44:23.472Z,4.88
2023-02-17T22:46:56.409Z,5.97
2023-02-17T22:49:30.635Z,5.75
2023-02-17T22:52:03.579Z,5.85
2023-02-17T22:54:38.636Z,5.55
2023-02-17T22:57:11.431Z,5.90
2023-02-17T22:59:47.550Z,5.60
2023-02-17T23:02:20.372Z,5.80
2023-02-17T23:04:54.646Z,5.60
2023-02-17T23:07:27.638Z,5.30
2023-02-17T23:10:01.252Z,5.00
2023-02-17T23:12:34.306Z,4.63
2023-02-17T23:15:07.603Z,5.30
2023-02-17T23:17:54.401Z,5.03
2023-02-17T23:20:28.792Z,4.75
2023-02-17T23:23:01.682Z,5.55
2023-02-17T23:25:34.573Z,4.80
2023-02-17T23:28:07.488Z,4.78
2023-02-17T23:30:42.035Z,5.15
2023-02-17T23:33:15.589Z,4.55
2023-02-17T23:35:50.523Z,5.10
2023-02-17T23:38:23.949Z,4.72
2023-02-17T23:40:57.141Z,5.28
2023-02-17T23:43:30.245Z,4.53
2023-02-17T23:46:03.399Z,4.60
2023-02-17T23:48:36.325Z,4.85
2023-02-17T23:51:11.493Z,4.38
2023-02-17T23:53:44.927Z,5.25
2023-02-17T23:56:21.371Z,4.65
2023-02-17T23:58:55.262Z,4.82
